sensor_id;sensor_type;location;lat;lon;timestamp;temperature;humidity
57030;DHT22;42920;45.306;20.448;2023-07-20T00:02:00;615.30;2432.00
57030;DHT22;42920;45.306;20.448;2023-07-20T00:04:26;615.30;2432.00
57030;DHT22;42920;45.306;20.448;2023-07-20T00:06:51;615.20;2432.00
57030;DHT22;42920;45.306;20.448;2023-07-20T00:09:17;615.20;2432.00
57030;DHT22;42920;45.306;20.448;2023-07-20T00:11:50;615.10;2432.00
57030;DHT22;42920;45.306;20.448;2023-07-20T00:14:18;615.30;2432.00
57030;DHT22;42920;45.306;20.448;2023-07-20T00:16:49;615.10;2432.00
57030;DHT22;42920;45.306;20.448;2023-07-20T00:19:27;615.10;2432.00
57030;DHT22;42920;45.306;20.448;2023-07-20T00:21:53;614.90;2432.00
57030;DHT22;42920;45.306;20.448;2023-07-20T00:24:20;615.10;2432.00
57030;DHT22;42920;45.306;20.448;2023-07-20T00:26:45;615.10;2432.00
57030;DHT22;42920;45.306;20.448;2023-07-20T00:29:11;615.10;2432.00
57030;DHT22;42920;45.306;20.448;2023-07-20T00:31:37;615.10;2432.00
57030;DHT22;42920;45.306;20.448;2023-07-20T00:34:03;615.20;2432.00
57030;DHT22;42920;45.306;20.448;2023-07-20T00:36:29;615.20;2432.00
57030;DHT22;42920;45.306;20.448;2023-07-20T00:38:55;615.20;2432.00
57030;DHT22;42920;45.306;20.448;2023-07-20T00:41:20;615.20;2432.00
57030;DHT22;42920;45.306;20.448;2023-07-20T00:43:46;615.10;2432.00
57030;DHT22;42920;45.306;20.448;2023-07-20T00:46:12;615.20;2432.00
57030;DHT22;42920;45.306;20.448;2023-07-20T00:48:40;615.10;2432.00
57030;DHT22;42920;45.306;20.448;2023-07-20T00:51:07;615.10;2432.00
57030;DHT22;42920;45.306;20.448;2023-07-20T00:53:33;615.20;2432.00
57030;DHT22;42920;45.306;20.448;2023-07-20T00:55:58;615.20;2432.00
57030;DHT22;42920;45.306;20.448;2023-07-20T00:58:24;615.20;2432.00
57030;DHT22;42920;45.306;20.448;2023-07-20T01:00:51;615.10;2432.00
57030;DHT22;42920;45.306;20.448;2023-07-20T01:03:16;615.10;2432.00
57030;DHT22;42920;45.306;20.448;2023-07-20T01:06:10;614.90;2432.00
57030;DHT22;42920;45.306;20.448;2023-07-20T01:11:19;615.10;2432.00
57030;DHT22;42920;45.306;20.448;2023-07-20T01:13:47;615.00;2432.00
57030;DHT22;42920;45.306;20.448;2023-07-20T01:16:12;614.90;2432.00
57030;DHT22;42920;45.306;20.448;2023-07-20T01:18:38;614.90;2432.00
57030;DHT22;42920;45.306;20.448;2023-07-20T01:21:09;615.00;2432.00
57030;DHT22;42920;45.306;20.448;2023-07-20T01:32:09;615.20;2432.00
57030;DHT22;42920;45.306;20.448;2023-07-20T01:34:36;615.20;2432.00
57030;DHT22;42920;45.306;20.448;2023-07-20T01:37:03;615.20;2432.00
57030;DHT22;42920;45.306;20.448;2023-07-20T01:39:31;615.30;2432.00
57030;DHT22;42920;45.306;20.448;2023-07-20T01:41:57;615.20;2432.00
57030;DHT22;42920;45.306;20.448;2023-07-20T01:44:23;615.30;2432.00
57030;DHT22;42920;45.306;20.448;2023-07-20T01:46:49;615.20;2432.00
57030;DHT22;42920;45.306;20.448;2023-07-20T01:49:14;615.20;2432.00
57030;DHT22;42920;45.306;20.448;2023-07-20T01:51:41;615.10;2432.00
57030;DHT22;42920;45.306;20.448;2023-07-20T01:54:06;614.90;2432.00
57030;DHT22;42920;45.306;20.448;2023-07-20T01:56:32;614.90;2432.00
57030;DHT22;42920;45.306;20.448;2023-07-20T01:58:58;614.70;2432.00
57030;DHT22;42920;45.306;20.448;2023-07-20T02:01:23;614.50;2432.00
57030;DHT22;42920;45.306;20.448;2023-07-20T02:03:49;589.60;2432.00
57030;DHT22;42920;45.306;20.448;2023-07-20T02:06:15;589.40;2432.00
57030;DHT22;42920;45.306;20.448;2023-07-20T02:08:40;589.20;2432.00
57030;DHT22;42920;45.306;20.448;2023-07-20T02:11:06;589.10;2432.00
57030;DHT22;42920;45.306;20.448;2023-07-20T02:13:32;589.30;2432.00
57030;DHT22;42920;45.306;20.448;2023-07-20T02:15:57;589.40;2432.00
57030;DHT22;42920;45.306;20.448;2023-07-20T02:18:23;589.70;2432.00
57030;DHT22;42920;45.306;20.448;2023-07-20T02:20:49;589.70;2432.00
57030;DHT22;42920;45.306;20.448;2023-07-20T02:23:14;614.50;2432.00
57030;DHT22;42920;45.306;20.448;2023-07-20T02:25:40;614.50;2432.00
57030;DHT22;42920;45.306;20.448;2023-07-20T02:28:07;614.50;2432.00
57030;DHT22;42920;45.306;20.448;2023-07-20T02:30:34;614.50;2432.00
57030;DHT22;42920;45.306;20.448;2023-07-20T02:33:02;614.50;2432.00
57030;DHT22;42920;45.306;20.448;2023-07-20T02:35:30;614.50;2432.00
57030;DHT22;42920;45.306;20.448;2023-07-20T02:37:57;589.70;2432.00
57030;DHT22;42920;45.306;20.448;2023-07-20T02:40:22;589.40;2432.00
57030;DHT22;42920;45.306;20.448;2023-07-20T02:42:48;589.30;2432.00
57030;DHT22;42920;45.306;20.448;2023-07-20T02:45:14;589.10;2432.00
57030;DHT22;42920;45.306;20.448;2023-07-20T02:47:40;589.00;2432.00
57030;DHT22;42920;45.306;20.448;2023-07-20T02:50:07;588.80;2432.00
57030;DHT22;42920;45.306;20.448;2023-07-20T02:52:33;589.00;2432.00
57030;DHT22;42920;45.306;20.448;2023-07-20T02:54:59;589.20;2432.00
57030;DHT22;42920;45.306;20.448;2023-07-20T02:57:25;589.20;2432.00
57030;DHT22;42920;45.306;20.448;2023-07-20T02:59:50;589.10;2432.00
57030;DHT22;42920;45.306;20.448;2023-07-20T03:02:16;589.10;2432.00
57030;DHT22;42920;45.306;20.448;2023-07-20T03:04:42;589.10;2432.00
57030;DHT22;42920;45.306;20.448;2023-07-20T03:07:07;589.00;2432.00
57030;DHT22;42920;45.306;20.448;2023-07-20T03:09:33;589.00;2432.00
57030;DHT22;42920;45.306;20.448;2023-07-20T03:11:59;589.00;2432.00
57030;DHT22;42920;45.306;20.448;2023-07-20T03:14:25;589.30;2432.00
57030;DHT22;42920;45.306;20.448;2023-07-20T03:16:51;589.50;2432.00
57030;DHT22;42920;45.306;20.448;2023-07-20T03:19:16;589.60;2432.00
57030;DHT22;42920;45.306;20.448;2023-07-20T03:21:42;589.70;2432.00
57030;DHT22;42920;45.306;20.448;2023-07-20T03:24:08;589.70;2432.00
57030;DHT22;42920;45.306;20.448;2023-07-20T03:26:35;614.40;2432.00
57030;DHT22;42920;45.306;20.448;2023-07-20T03:29:01;614.50;2432.00
57030;DHT22;42920;45.306;20.448;2023-07-20T03:31:27;614.50;2432.00
57030;DHT22;42920;45.306;20.448;2023-07-20T03:33:52;614.60;2432.00
57030;DHT22;42920;45.306;20.448;2023-07-20T03:36:18;614.60;2432.00
57030;DHT22;42920;45.306;20.448;2023-07-20T03:38:44;614.70;2432.00
57030;DHT22;42920;45.306;20.448;2023-07-20T03:41:09;614.70;2432.00
57030;DHT22;42920;45.306;20.448;2023-07-20T03:43:37;614.70;2432.00
57030;DHT22;42920;45.306;20.448;2023-07-20T03:46:03;614.60;2432.00
57030;DHT22;42920;45.306;20.448;2023-07-20T03:48:33;614.60;2432.00
57030;DHT22;42920;45.306;20.448;2023-07-20T03:50:59;614.40;2432.00
57030;DHT22;42920;45.306;20.448;2023-07-20T03:53:26;614.50;2432.00
57030;DHT22;42920;45.306;20.448;2023-07-20T03:55:52;614.60;2432.00
57030;DHT22;42920;45.306;20.448;2023-07-20T03:58:19;614.60;2432.00
57030;DHT22;42920;45.306;20.448;2023-07-20T04:00:46;614.50;2432.00
57030;DHT22;42920;45.306;20.448;2023-07-20T04:03:12;614.50;2432.00
57030;DHT22;42920;45.306;20.448;2023-07-20T04:05:38;589.60;2432.00
57030;DHT22;42920;45.306;20.448;2023-07-20T04:08:04;614.40;2432.00
57030;DHT22;42920;45.306;20.448;2023-07-20T04:10:30;589.70;2432.00
57030;DHT22;42920;45.306;20.448;2023-07-20T04:12:56;589.70;2432.00
57030;DHT22;42920;45.306;20.448;2023-07-20T04:15:21;589.70;2432.00
57030;DHT22;42920;45.306;20.448;2023-07-20T04:17:47;614.40;2432.00
57030;DHT22;42920;45.306;20.448;2023-07-20T04:20:13;589.70;2432.00
57030;DHT22;42920;45.306;20.448;2023-07-20T04:22:38;589.70;2432.00
57030;DHT22;42920;45.306;20.448;2023-07-20T04:25:04;589.70;2432.00
57030;DHT22;42920;45.306;20.448;2023-07-20T04:27:30;589.70;2432.00
57030;DHT22;42920;45.306;20.448;2023-07-20T04:29:57;589.70;2432.00
57030;DHT22;42920;45.306;20.448;2023-07-20T04:32:25;589.70;2432.00
57030;DHT22;42920;45.306;20.448;2023-07-20T04:34:51;589.70;2432.00
57030;DHT22;42920;45.306;20.448;2023-07-20T04:37:16;589.70;2432.00
57030;DHT22;42920;45.306;20.448;2023-07-20T04:39:42;614.40;2432.00
57030;DHT22;42920;45.306;20.448;2023-07-20T04:42:08;589.70;2432.00
57030;DHT22;42920;45.306;20.448;2023-07-20T04:44:33;614.50;2432.00
57030;DHT22;42920;45.306;20.448;2023-07-20T04:46:59;614.50;2432.00
57030;DHT22;42920;45.306;20.448;2023-07-20T04:49:25;614.60;2432.00
57030;DHT22;42920;45.306;20.448;2023-07-20T04:51:51;614.50;2432.00
57030;DHT22;42920;45.306;20.448;2023-07-20T04:54:17;614.50;2432.00
57030;DHT22;42920;45.306;20.448;2023-07-20T04:56:44;614.50;2432.00
57030;DHT22;42920;45.306;20.448;2023-07-20T04:59:10;614.50;2432.00
57030;DHT22;42920;45.306;20.448;2023-07-20T05:01:35;614.50;2432.00
57030;DHT22;42920;45.306;20.448;2023-07-20T05:04:01;614.50;2432.00
57030;DHT22;42920;45.306;20.448;2023-07-20T05:06:27;614.60;2432.00
57030;DHT22;42920;45.306;20.448;2023-07-20T05:08:53;614.50;2432.00
57030;DHT22;42920;45.306;20.448;2023-07-20T05:11:19;614.50;2432.00
57030;DHT22;42920;45.306;20.448;2023-07-20T05:13:45;614.60;2432.00
57030;DHT22;42920;45.306;20.448;2023-07-20T05:16:11;614.70;2432.00
57030;DHT22;42920;45.306;20.448;2023-07-20T05:18:36;614.60;2432.00
57030;DHT22;42920;45.306;20.448;2023-07-20T05:21:02;614.50;2432.00
57030;DHT22;42920;45.306;20.448;2023-07-20T05:23:28;614.50;2432.00
57030;DHT22;42920;45.306;20.448;2023-07-20T05:25:58;614.50;2432.00
57030;DHT22;42920;45.306;20.448;2023-07-20T05:28:25;614.60;2432.00
57030;DHT22;42920;45.306;20.448;2023-07-20T05:30:52;614.60;2432.00
57030;DHT22;42920;45.306;20.448;2023-07-20T05:33:21;614.60;2432.00
57030;DHT22;42920;45.306;20.448;2023-07-20T05:35:47;614.70;2432.00
57030;DHT22;42920;45.306;20.448;2023-07-20T05:38:13;614.70;2432.00
57030;DHT22;42920;45.306;20.448;2023-07-20T05:40:43;614.80;2432.00
57030;DHT22;42920;45.306;20.448;2023-07-20T05:43:09;614.80;2432.00
57030;DHT22;42920;45.306;20.448;2023-07-20T05:45:35;614.90;2432.00
57030;DHT22;42920;45.306;20.448;2023-07-20T05:48:01;614.90;2432.00
57030;DHT22;42920;45.306;20.448;2023-07-20T05:50:27;614.90;2432.00
57030;DHT22;42920;45.306;20.448;2023-07-20T05:52:53;614.90;2432.00
57030;DHT22;42920;45.306;20.448;2023-07-20T05:55:20;615.00;2432.00
57030;DHT22;42920;45.306;20.448;2023-07-20T05:57:46;615.00;2432.00
57030;DHT22;42920;45.306;20.448;2023-07-20T06:00:13;614.90;2432.00
57030;DHT22;42920;45.306;20.448;2023-07-20T06:02:39;614.90;2432.00
57030;DHT22;42920;45.306;20.448;2023-07-20T06:05:06;615.10;2432.00
57030;DHT22;42920;45.306;20.448;2023-07-20T06:07:38;615.00;2432.00
57030;DHT22;42920;45.306;20.448;2023-07-20T06:10:05;614.90;2432.00
57030;DHT22;42920;45.306;20.448;2023-07-20T06:12:31;615.10;2432.00
57030;DHT22;42920;45.306;20.448;2023-07-20T06:15:01;615.10;2432.00
57030;DHT22;42920;45.306;20.448;2023-07-20T06:17:27;615.20;2432.00
57030;DHT22;42920;45.306;20.448;2023-07-20T06:19:53;615.30;2432.00
57030;DHT22;42920;45.306;20.448;2023-07-20T06:22:18;615.00;2432.00
57030;DHT22;42920;45.306;20.448;2023-07-20T06:24:44;615.20;2432.00
57030;DHT22;42920;45.306;20.448;2023-07-20T06:27:10;615.20;2432.00
57030;DHT22;42920;45.306;20.448;2023-07-20T06:29:37;615.30;2432.00
57030;DHT22;42920;45.306;20.448;2023-07-20T06:32:03;615.30;2432.00
57030;DHT22;42920;45.306;20.448;2023-07-20T06:34:29;615.30;2432.00
57030;DHT22;42920;45.306;20.448;2023-07-20T06:36:55;615.10;2432.00
57030;DHT22;42920;45.306;20.448;2023-07-20T06:39:21;615.30;2432.00
57030;DHT22;42920;45.306;20.448;2023-07-20T06:41:47;615.30;2432.00
57030;DHT22;42920;45.306;20.448;2023-07-20T06:44:13;615.20;2432.00
57030;DHT22;42920;45.306;20.448;2023-07-20T06:46:39;615.30;2432.00
57030;DHT22;42920;45.306;20.448;2023-07-20T06:49:06;615.30;2432.00
57030;DHT22;42920;45.306;20.448;2023-07-20T06:51:33;615.30;2432.00
57030;DHT22;42920;45.306;20.448;2023-07-20T06:53:59;615.30;2432.00
57030;DHT22;42920;45.306;20.448;2023-07-20T06:56:24;615.30;2432.00
57030;DHT22;42920;45.306;20.448;2023-07-20T06:58:50;615.30;2432.00
57030;DHT22;42920;45.306;20.448;2023-07-20T07:01:16;615.20;2432.00
57030;DHT22;42920;45.306;20.448;2023-07-20T07:03:42;615.20;2432.00
57030;DHT22;42920;45.306;20.448;2023-07-20T07:06:09;615.10;2432.00
57030;DHT22;42920;45.306;20.448;2023-07-20T07:08:35;615.20;2432.00
57030;DHT22;42920;45.306;20.448;2023-07-20T07:11:01;615.20;2432.00
57030;DHT22;42920;45.306;20.448;2023-07-20T07:13:27;615.30;2432.00
57030;DHT22;42920;45.306;20.448;2023-07-20T07:15:53;615.30;2432.00
57030;DHT22;42920;45.306;20.448;2023-07-20T07:18:18;615.30;2432.00
57030;DHT22;42920;45.306;20.448;2023-07-20T07:20:51;615.30;2432.00
57030;DHT22;42920;45.306;20.448;2023-07-20T07:23:17;615.30;2432.00
57030;DHT22;42920;45.306;20.448;2023-07-20T07:25:43;615.30;2432.00
57030;DHT22;42920;45.306;20.448;2023-07-20T07:28:09;615.30;2432.00
57030;DHT22;42920;45.306;20.448;2023-07-20T07:30:35;640.00;2432.00
57030;DHT22;42920;45.306;20.448;2023-07-20T07:33:00;640.10;2432.00
57030;DHT22;42920;45.306;20.448;2023-07-20T07:35:26;640.20;2432.00
57030;DHT22;42920;45.306;20.448;2023-07-20T07:37:51;640.20;2432.00
57030;DHT22;42920;45.306;20.448;2023-07-20T07:40:17;640.40;2432.00
57030;DHT22;42920;45.306;20.448;2023-07-20T07:42:43;640.60;2432.00
57030;DHT22;42920;45.306;20.448;2023-07-20T07:45:09;640.50;2432.00
57030;DHT22;42920;45.306;20.448;2023-07-20T07:47:35;640.50;2432.00
57030;DHT22;42920;45.306;20.448;2023-07-20T07:50:01;640.40;2432.00
57030;DHT22;42920;45.306;20.448;2023-07-20T07:52:27;640.40;2432.00
57030;DHT22;42920;45.306;20.448;2023-07-20T07:54:53;640.40;2432.00
57030;DHT22;42920;45.306;20.448;2023-07-20T07:57:18;640.40;2432.00
57030;DHT22;42920;45.306;20.448;2023-07-20T07:59:44;640.40;2432.00
57030;DHT22;42920;45.306;20.448;2023-07-20T08:02:10;640.30;2432.00
57030;DHT22;42920;45.306;20.448;2023-07-20T08:04:35;640.40;2432.00
57030;DHT22;42920;45.306;20.448;2023-07-20T08:07:03;640.60;2432.00
57030;DHT22;42920;45.306;20.448;2023-07-20T08:09:29;640.80;2432.00
57030;DHT22;42920;45.306;20.448;2023-07-20T08:11:55;665.60;2432.00
57030;DHT22;42920;45.306;20.448;2023-07-20T08:16:47;665.70;2432.00
57030;DHT22;42920;45.306;20.448;2023-07-20T08:19:13;665.90;2432.00
57030;DHT22;42920;45.306;20.448;2023-07-20T08:21:38;666.10;2432.00
57030;DHT22;42920;45.306;20.448;2023-07-20T08:24:04;666.20;2432.00
57030;DHT22;42920;45.306;20.448;2023-07-20T08:26:30;666.20;2432.00
57030;DHT22;42920;45.306;20.448;2023-07-20T08:28:56;666.50;2432.00
57030;DHT22;42920;45.306;20.448;2023-07-20T08:31:21;691.20;2432.00
57030;DHT22;42920;45.306;20.448;2023-07-20T08:33:47;691.20;2432.00
57030;DHT22;42920;45.306;20.448;2023-07-20T08:36:14;691.20;2432.00
57030;DHT22;42920;45.306;20.448;2023-07-20T08:38:39;691.20;2432.00
57030;DHT22;42920;45.306;20.448;2023-07-20T08:41:05;691.30;2432.00
57030;DHT22;42920;45.306;20.448;2023-07-20T08:43:31;691.20;2432.00
57030;DHT22;42920;45.306;20.448;2023-07-20T08:45:58;691.40;2432.00
57030;DHT22;42920;45.306;20.448;2023-07-20T08:48:26;691.40;2432.00
57030;DHT22;42920;45.306;20.448;2023-07-20T08:50:53;691.50;2432.00
57030;DHT22;42920;45.306;20.448;2023-07-20T08:53:22;691.60;2432.00
57030;DHT22;42920;45.306;20.448;2023-07-20T08:55:50;691.60;2432.00
57030;DHT22;42920;45.306;20.448;2023-07-20T08:58:18;691.60;2432.00
57030;DHT22;42920;45.306;20.448;2023-07-20T09:00:44;691.60;2432.00
57030;DHT22;42920;45.306;20.448;2023-07-20T09:03:11;691.60;2432.00
57030;DHT22;42920;45.306;20.448;2023-07-20T09:05:37;691.60;2432.00
57030;DHT22;42920;45.306;20.448;2023-07-20T09:08:04;691.60;2432.00
57030;DHT22;42920;45.306;20.448;2023-07-20T09:10:30;691.60;2432.00
57030;DHT22;42920;45.306;20.448;2023-07-20T09:12:56;691.50;2432.00
57030;DHT22;42920;45.306;20.448;2023-07-20T09:15:22;691.60;2432.00
57030;DHT22;42920;45.306;20.448;2023-07-20T09:17:50;691.60;2432.00
57030;DHT22;42920;45.306;20.448;2023-07-20T09:20:17;691.60;2432.00
57030;DHT22;42920;45.306;20.448;2023-07-20T09:22:43;691.60;2432.00
57030;DHT22;42920;45.306;20.448;2023-07-20T09:25:13;691.80;2432.00
57030;DHT22;42920;45.306;20.448;2023-07-20T09:27:41;691.80;2432.00
57030;DHT22;42920;45.306;20.448;2023-07-20T09:30:07;691.90;2432.00
57030;DHT22;42920;45.306;20.448;2023-07-20T09:32:45;691.90;2432.00
57030;DHT22;42920;45.306;20.448;2023-07-20T09:35:16;691.90;2432.00
57030;DHT22;42920;45.306;20.448;2023-07-20T09:38:01;692.10;2432.00
57030;DHT22;42920;45.306;20.448;2023-07-20T09:40:27;691.90;2432.00
57030;DHT22;42920;45.306;20.448;2023-07-20T09:42:54;692.00;2432.00
57030;DHT22;42920;45.306;20.448;2023-07-20T09:45:39;692.00;2432.00
57030;DHT22;42920;45.306;20.448;2023-07-20T09:48:05;692.00;2432.00
57030;DHT22;42920;45.306;20.448;2023-07-20T09:50:40;716.80;2432.00
57030;DHT22;42920;45.306;20.448;2023-07-20T09:53:09;717.20;2432.00
57030;DHT22;42920;45.306;20.448;2023-07-20T09:55:37;717.30;2432.00
57030;DHT22;42920;45.306;20.448;2023-07-20T09:58:04;717.50;2432.00
57030;DHT22;42920;45.306;20.448;2023-07-20T10:00:34;742.50;2432.00
57030;DHT22;42920;45.306;20.448;2023-07-20T10:03:03;742.60;2432.00
57030;DHT22;42920;45.306;20.448;2023-07-20T10:05:35;742.80;2432.00
57030;DHT22;42920;45.306;20.448;2023-07-20T10:08:03;742.90;2432.00
57030;DHT22;42920;45.306;20.448;2023-07-20T10:10:32;742.80;2432.00
57030;DHT22;42920;45.306;20.448;2023-07-20T10:12:59;742.80;2432.00
57030;DHT22;42920;45.306;20.448;2023-07-20T10:15:46;742.90;2432.00
57030;DHT22;42920;45.306;20.448;2023-07-20T10:18:17;742.80;2432.00
57030;DHT22;42920;45.306;20.448;2023-07-20T10:20:44;742.90;2432.00
57030;DHT22;42920;45.306;20.448;2023-07-20T10:23:12;743.00;2432.00
57030;DHT22;42920;45.306;20.448;2023-07-20T10:25:38;743.30;2432.00
57030;DHT22;42920;45.306;20.448;2023-07-20T10:28:06;743.10;2432.00
57030;DHT22;42920;45.306;20.448;2023-07-20T10:30:36;743.20;2432.00
57030;DHT22;42920;45.306;20.448;2023-07-20T10:33:03;743.20;2432.00
57030;DHT22;42920;45.306;20.448;2023-07-20T10:35:30;743.20;2432.00
57030;DHT22;42920;45.306;20.448;2023-07-20T10:40:36;768.40;2432.00
57030;DHT22;42920;45.306;20.448;2023-07-20T10:43:05;768.90;2432.00
57030;DHT22;42920;45.306;20.448;2023-07-20T10:45:34;793.70;2329.60
57030;DHT22;42920;45.306;20.448;2023-07-20T10:48:03;794.00;2278.40
57030;DHT22;42920;45.306;20.448;2023-07-20T10:50:30;794.20;2278.40
57030;DHT22;42920;45.306;20.448;2023-07-20T10:53:13;794.20;2252.80
57030;DHT22;42920;45.306;20.448;2023-07-20T10:55:43;794.20;2201.60
57030;DHT22;42920;45.306;20.448;2023-07-20T10:58:10;794.50;2201.60
57030;DHT22;42920;45.306;20.448;2023-07-20T11:00:37;819.20;2201.60
57030;DHT22;42920;45.306;20.448;2023-07-20T11:03:03;819.30;2201.60
57030;DHT22;42920;45.306;20.448;2023-07-20T11:05:38;819.20;2124.80
57030;DHT22;42920;45.306;20.448;2023-07-20T11:08:06;819.30;2150.40
57030;DHT22;42920;45.306;20.448;2023-07-20T11:10:34;819.30;2124.80
57030;DHT22;42920;45.306;20.448;2023-07-20T11:13:22;819.60;2099.20
57030;DHT22;42920;45.306;20.448;2023-07-20T11:18:25;819.30;2124.80
57030;DHT22;42920;45.306;20.448;2023-07-20T11:20:52;819.70;2073.60
57030;DHT22;42920;45.306;20.448;2023-07-20T11:23:20;819.70;2073.60
57030;DHT22;42920;45.306;20.448;2023-07-20T11:25:45;819.80;2048.00
57030;DHT22;42920;45.306;20.448;2023-07-20T11:28:11;819.80;2022.40
57030;DHT22;42920;45.306;20.448;2023-07-20T11:30:38;819.90;2022.40
57030;DHT22;42920;45.306;20.448;2023-07-20T11:33:04;820.10;1894.40
57030;DHT22;42920;45.306;20.448;2023-07-20T11:35:34;844.90;1894.40
57030;DHT22;42920;45.306;20.448;2023-07-20T11:38:00;845.00;1920.00
57030;DHT22;42920;45.306;20.448;2023-07-20T11:40:26;844.90;1971.20
57030;DHT22;42920;45.306;20.448;2023-07-20T11:42:52;844.80;1996.80
57030;DHT22;42920;45.306;20.448;2023-07-20T11:45:19;844.80;1971.20
57030;DHT22;42920;45.306;20.448;2023-07-20T11:47:45;844.80;1971.20
57030;DHT22;42920;45.306;20.448;2023-07-20T11:50:11;844.80;1945.60
57030;DHT22;42920;45.306;20.448;2023-07-20T11:52:39;844.90;1894.40
57030;DHT22;42920;45.306;20.448;2023-07-20T11:55:07;845.10;1920.00
57030;DHT22;42920;45.306;20.448;2023-07-20T11:57:32;845.40;1894.40
57030;DHT22;42920;45.306;20.448;2023-07-20T12:00:03;845.60;1868.80
57030;DHT22;42920;45.306;20.448;2023-07-20T12:02:40;845.70;1792.00
57030;DHT22;42920;45.306;20.448;2023-07-20T12:07:36;845.70;1843.20
57030;DHT22;42920;45.306;20.448;2023-07-20T12:10:05;870.40;1817.60
57030;DHT22;42920;45.306;20.448;2023-07-20T12:12:42;845.70;1817.60
57030;DHT22;42920;45.306;20.448;2023-07-20T12:15:19;845.60;1894.40
57030;DHT22;42920;45.306;20.448;2023-07-20T12:17:46;845.30;1843.20
57030;DHT22;42920;45.306;20.448;2023-07-20T12:20:12;845.60;1894.40
57030;DHT22;42920;45.306;20.448;2023-07-20T12:22:43;845.70;1843.20
57030;DHT22;42920;45.306;20.448;2023-07-20T12:25:09;870.60;1817.60
57030;DHT22;42920;45.306;20.448;2023-07-20T12:27:37;870.70;1740.80
57030;DHT22;42920;45.306;20.448;2023-07-20T12:30:05;870.80;1689.60
57030;DHT22;42920;45.306;20.448;2023-07-20T12:32:31;870.80;1689.60
57030;DHT22;42920;45.306;20.448;2023-07-20T12:34:57;870.90;1689.60
57030;DHT22;42920;45.306;20.448;2023-07-20T12:37:22;870.90;1715.20
57030;DHT22;42920;45.306;20.448;2023-07-20T12:39:49;871.00;1740.80
57030;DHT22;42920;45.306;20.448;2023-07-20T12:42:14;871.30;1664.00
57030;DHT22;42920;45.306;20.448;2023-07-20T12:44:41;871.30;1689.60
57030;DHT22;42920;45.306;20.448;2023-07-20T12:47:07;871.30;1638.40
57030;DHT22;42920;45.306;20.448;2023-07-20T12:49:33;871.30;1664.00
57030;DHT22;42920;45.306;20.448;2023-07-20T12:51:58;871.30;1612.80
57030;DHT22;42920;45.306;20.448;2023-07-20T12:54:24;871.30;1587.20
57030;DHT22;42920;45.306;20.448;2023-07-20T12:56:50;871.30;1561.60
57030;DHT22;42920;45.306;20.448;2023-07-20T12:59:15;871.30;1638.40
57030;DHT22;42920;45.306;20.448;2023-07-20T13:01:41;896.10;1587.20
57030;DHT22;42920;45.306;20.448;2023-07-20T13:04:08;896.20;1587.20
57030;DHT22;42920;45.306;20.448;2023-07-20T13:06:34;896.10;1536.00
57030;DHT22;42920;45.306;20.448;2023-07-20T13:09:00;896.20;1587.20
57030;DHT22;42920;45.306;20.448;2023-07-20T13:11:26;871.10;1612.80
57030;DHT22;42920;45.306;20.448;2023-07-20T13:13:52;870.90;1638.40
57030;DHT22;42920;45.306;20.448;2023-07-20T13:16:17;870.90;1638.40
57030;DHT22;42920;45.306;20.448;2023-07-20T13:18:43;871.10;1587.20
57030;DHT22;42920;45.306;20.448;2023-07-20T13:21:09;871.10;1638.40
57030;DHT22;42920;45.306;20.448;2023-07-20T13:23:37;871.30;1561.60
57030;DHT22;42920;45.306;20.448;2023-07-20T13:26:04;896.40;1561.60
57030;DHT22;42920;45.306;20.448;2023-07-20T13:28:30;921.80;1510.40
57030;DHT22;42920;45.306;20.448;2023-07-20T13:30:55;922.40;1510.40
57030;DHT22;42920;45.306;20.448;2023-07-20T13:33:21;922.20;1484.80
57030;DHT22;42920;45.306;20.448;2023-07-20T13:35:47;922.40;1459.20
57030;DHT22;42920;45.306;20.448;2023-07-20T13:38:13;947.20;1459.20
57030;DHT22;42920;45.306;20.448;2023-07-20T13:40:38;947.50;1459.20
57030;DHT22;42920;45.306;20.448;2023-07-20T13:43:04;947.30;1484.80
57030;DHT22;42920;45.306;20.448;2023-07-20T13:45:30;947.90;1510.40
57030;DHT22;42920;45.306;20.448;2023-07-20T13:47:55;947.50;1459.20
57030;DHT22;42920;45.306;20.448;2023-07-20T13:50:21;947.90;1459.20
57030;DHT22;42920;45.306;20.448;2023-07-20T13:52:47;948.00;1433.60
57030;DHT22;42920;45.306;20.448;2023-07-20T13:55:13;947.50;1433.60
57030;DHT22;42920;45.306;20.448;2023-07-20T13:57:38;922.50;1459.20
57030;DHT22;42920;45.306;20.448;2023-07-20T14:00:05;922.50;1484.80
57030;DHT22;42920;45.306;20.448;2023-07-20T14:02:31;922.40;1484.80
57030;DHT22;42920;45.306;20.448;2023-07-20T14:04:57;922.50;1459.20
57030;DHT22;42920;45.306;20.448;2023-07-20T14:07:23;947.30;1433.60
57030;DHT22;42920;45.306;20.448;2023-07-20T14:09:48;947.50;1433.60
57030;DHT22;42920;45.306;20.448;2023-07-20T14:12:16;922.30;1459.20
57030;DHT22;42920;45.306;20.448;2023-07-20T14:14:41;947.40;1459.20
57030;DHT22;42920;45.306;20.448;2023-07-20T14:17:07;922.50;1459.20
57030;DHT22;42920;45.306;20.448;2023-07-20T14:19:33;947.50;1459.20
57030;DHT22;42920;45.306;20.448;2023-07-20T14:21:59;947.80;1459.20
57030;DHT22;42920;45.306;20.448;2023-07-20T14:24:25;972.90;1484.80
57030;DHT22;42920;45.306;20.448;2023-07-20T14:26:51;947.40;1484.80
57030;DHT22;42920;45.306;20.448;2023-07-20T14:29:17;947.70;1484.80
57030;DHT22;42920;45.306;20.448;2023-07-20T14:31:45;947.70;1510.40
57030;DHT22;42920;45.306;20.448;2023-07-20T14:34:18;948.00;1484.80
57030;DHT22;42920;45.306;20.448;2023-07-20T14:36:44;947.90;1484.80
57030;DHT22;42920;45.306;20.448;2023-07-20T14:39:10;947.40;1510.40
57030;DHT22;42920;45.306;20.448;2023-07-20T14:41:36;947.50;1484.80
57030;DHT22;42920;45.306;20.448;2023-07-20T14:44:02;947.80;1459.20
57030;DHT22;42920;45.306;20.448;2023-07-20T14:46:28;922.40;1510.40
57030;DHT22;42920;45.306;20.448;2023-07-20T14:48:53;922.20;1536.00
57030;DHT22;42920;45.306;20.448;2023-07-20T14:51:19;922.00;1536.00
57030;DHT22;42920;45.306;20.448;2023-07-20T14:53:45;921.80;1561.60
57030;DHT22;42920;45.306;20.448;2023-07-20T14:56:10;922.00;1561.60